Time;durP1;ratioP1;P1;durP2;ratioP2;P2;SDS_P1;SDS_P2;PMS_P1;PMS_P2;Temp;Humidity;BMP_temperature;BMP_pressure;BME280_temperature;BME280_humidity;BME280_pressure;Samples;Min_cycle;Max_cycle;Signal;HPM_P1;HPM_P2
2023/05/24 00:00:39;;;;;;;;;;;;;;;16.75;47.66;100520.88;5078171;28;1062;-58
2023/05/24 00:03:05;;;;;;;;;;;;;;;16.68;46.66;100522.31;5079655;28;1980;-59
2023/05/24 00:05:31;;;;;;;;;;;;;;;16.62;46.23;100520.66;5078329;28;1019;-59
2023/05/24 00:07:57;;;;;;;;;;;;;;;16.41;45.76;100512.47;5078034;28;1158;-59
2023/05/24 00:10:23;;;;;;;;;;;;;;;17.62;47.28;100518.75;5078021;28;1023;-59
2023/05/24 00:12:49;;;;;;;;;;;;;;;16.85;47.69;100514.53;5077695;28;1212;-59
2023/05/24 00:15:14;;;;;;;;;;;;;;;16.62;47.14;100505.03;5082797;28;1125;-59
2023/05/24 00:17:41;;;;;;;;;;;;;;;16.53;46.46;100507.50;5068512;28;1043;-59
2023/05/24 00:20:10;;;;;;;;;;;;;;;16.41;45.91;100507.00;5078240;28;1046;-59
2023/05/24 00:22:36;;;;;;;;;;;;;;;16.91;47.03;100512.59;5078242;28;1971;-59
2023/05/24 00:25:02;;;;;;;;;;;;;;;16.75;47.42;100504.41;5077436;28;1423;-59
2023/05/24 00:27:27;;;;;;;;;;;;;;;16.40;46.95;100517.16;5067729;28;976;-59
2023/05/24 00:29:53;;;;;;;;;;;;;;;16.37;46.04;100514.97;5076391;28;1078;-59
2023/05/24 00:32:20;;;;;;;;;;;;;;;16.50;46.37;100518.25;5077574;28;1166;-59
2023/05/24 00:34:45;;;;;;;;;;;;;;;17.08;47.75;100523.22;5059996;28;1545;-59
2023/05/24 00:37:11;;;;;;;;;;;;;;;17.34;47.90;100515.66;5077767;28;1142;-59
2023/05/24 00:39:37;;;;;;;;;;;;;;;18.67;47.85;100523.81;5062387;28;1150;-59
2023/05/24 00:42:03;;;;;;;;;;;;;;;17.54;49.52;100524.88;5070295;28;1242;-60
2023/05/24 00:44:28;;;;;;;;;;;;;;;17.05;49.07;100512.81;5077239;28;1913;-59
2023/05/24 00:46:54;;;;;;;;;;;;;;;16.93;47.59;100519.47;5076956;28;1214;-59
2023/05/24 00:49:19;;;;;;;;;;;;;;;17.37;48.64;100520.56;5059696;28;1111;-59
2023/05/24 00:51:45;;;;;;;;;;;;;;;17.15;48.64;100522.91;5059037;28;905;-59
2023/05/24 00:54:12;;;;;;;;;;;;;;;16.68;48.16;100514.88;5077255;28;1153;-58
2023/05/24 00:56:38;;;;;;;;;;;;;;;16.70;46.81;100523.63;5059676;28;1122;-58
2023/05/24 00:59:03;;;;;;;;;;;;;;;16.58;46.41;100525.91;5077393;28;1217;-58
2023/05/24 01:01:29;;;;;;;;;;;;;;;17.69;47.64;100527.50;5076746;28;1190;-58
2023/05/24 01:03:56;;;;;;;;;;;;;;;16.98;48.17;100529.59;5068005;28;1914;-58
2023/05/24 01:06:22;;;;;;;;;;;;;;;16.80;47.39;100522.78;5059247;28;1118;-58
2023/05/24 01:09:00;;;;;;;;;;;;;;;17.43;47.64;100522.19;5076688;28;1155;-58
2023/05/24 01:11:26;;;;;;;;;;;;;;;17.30;48.89;100513.78;5077405;28;1074;-59
2023/05/24 01:14:01;;;;;;;;;;;;;;;16.85;48.14;100520.00;5076947;28;1125;-60
2023/05/24 01:16:31;;;;;;;;;;;;;;;16.79;47.05;100510.16;5050780;28;901;-60
2023/05/24 01:18:56;;;;;;;;;;;;;;;16.71;46.36;100516.25;5076961;28;1142;-60
2023/05/24 01:21:37;;;;;;;;;;;;;;;17.56;47.89;100511.66;5058737;28;1086;-59
2023/05/24 01:24:05;;;;;;;;;;;;;;;17.03;47.74;100518.59;5057660;28;1967;-59
2023/05/24 01:26:31;;;;;;;;;;;;;;;16.74;47.30;100515.69;5079275;28;1130;-60
2023/05/24 01:28:56;;;;;;;;;;;;;;;16.62;46.41;100513.25;5058816;28;1466;-59
2023/05/24 01:31:22;;;;;;;;;;;;;;;17.18;47.16;100516.84;5072796;28;908;-61
2023/05/24 01:33:48;;;;;;;;;;;;;;;16.95;47.66;100508.19;5086656;28;1003;-61
2023/05/24 01:36:13;;;;;;;;;;;;;;;16.70;46.81;100515.41;5066506;28;1216;-61
2023/05/24 01:38:39;;;;;;;;;;;;;;;17.60;47.58;100518.25;5058459;28;1261;-60
2023/05/24 01:41:11;;;;;;;;;;;;;;;16.91;47.79;100518.09;5075749;28;1085;-61
2023/05/24 01:43:41;;;;;;;;;;;;;;;16.75;47.05;100512.66;5058677;28;1898;-61
2023/05/24 01:46:24;;;;;;;;;;;;;;;16.56;46.69;100522.59;5058300;28;1575;-60
2023/05/24 01:48:50;;;;;;;;;;;;;;;16.53;45.90;100523.16;5058776;28;1139;-61
2023/05/24 01:51:17;;;;;;;;;;;;;;;17.21;47.18;100519.06;5081567;28;928;-61
2023/05/24 01:53:46;;;;;;;;;;;;;;;16.74;46.86;100523.91;5052021;28;1042;-61
2023/05/24 01:56:11;;;;;;;;;;;;;;;16.64;46.39;100521.22;5058688;28;1127;-59
2023/05/24 01:58:38;;;;;;;;;;;;;;;16.38;45.92;100527.59;5058124;28;1080;-59
2023/05/24 02:01:03;;;;;;;;;;;;;;;17.62;47.00;100527.00;5058704;28;1205;-59
2023/05/24 02:03:29;;;;;;;;;;;;;;;16.90;47.39;100521.94;5076663;28;1973;-59
2023/05/24 02:05:54;;;;;;;;;;;;;;;16.58;46.98;100523.16;5076822;28;1113;-59
2023/05/24 02:08:20;;;;;;;;;;;;;;;17.41;47.62;100526.34;5076282;28;1032;-58
2023/05/24 02:10:45;;;;;;;;;;;;;;;16.81;47.62;100518.13;5076698;28;1228;-59
2023/05/24 02:13:11;;;;;;;;;;;;;;;16.63;46.62;100523.13;5076265;28;1154;-60
2023/05/24 02:15:36;;;;;;;;;;;;;;;16.49;46.35;100533.06;5076838;28;844;-60
2023/05/24 02:18:02;;;;;;;;;;;;;;;16.45;45.63;100526.47;5058241;28;1425;-59
2023/05/24 02:20:35;;;;;;;;;;;;;;;16.37;45.29;100522.41;5058578;28;1148;-60
2023/05/24 02:23:01;;;;;;;;;;;;;;;17.50;46.82;100523.78;5075553;28;1902;-57
2023/05/24 02:25:27;;;;;;;;;;;;;;;16.82;47.76;100519.78;5076474;28;1185;-56
2023/05/24 02:27:52;;;;;;;;;;;;;;;16.58;46.88;100525.91;5066229;28;1257;-57
2023/05/24 02:30:18;;;;;;;;;;;;;;;17.75;47.35;100537.38;5076178;28;1078;-57
2023/05/24 02:32:43;;;;;;;;;;;;;;;16.91;48.00;100535.41;5075886;28;1154;-57
2023/05/24 02:35:09;;;;;;;;;;;;;;;16.71;47.30;100539.00;5059129;28;1544;-57
2023/05/24 02:37:35;;;;;;;;;;;;;;;17.13;47.68;100541.63;5079859;28;1111;-57
2023/05/24 02:40:00;;;;;;;;;;;;;;;16.92;48.11;100538.97;5081914;28;879;-56
2023/05/24 02:42:26;;;;;;;;;;;;;;;16.67;47.33;100551.66;5061899;28;1587;-56
2023/05/24 02:44:51;;;;;;;;;;;;;;;17.13;47.44;100547.94;5079458;28;1905;-59
2023/05/24 02:47:17;;;;;;;;;;;;;;;17.24;48.17;100544.03;5079611;28;1193;-58
2023/05/24 02:49:42;;;;;;;;;;;;;;;16.80;47.69;100549.44;5079786;28;1130;-61
2023/05/24 02:52:08;;;;;;;;;;;;;;;16.63;47.17;100556.06;5057370;28;1186;-60
2023/05/24 02:54:35;;;;;;;;;;;;;;;17.32;47.51;100556.34;5059512;28;1214;-59
2023/05/24 02:57:05;;;;;;;;;;;;;;;16.90;47.91;100546.66;5049276;28;1399;-57
2023/05/24 02:59:32;;;;;;;;;;;;;;;16.71;47.36;100544.50;5079029;28;1043;-59
2023/05/24 03:01:58;;;;;;;;;;;;;;;16.45;46.65;100551.19;5079299;28;1170;-58
2023/05/24 03:04:24;;;;;;;;;;;;;;;17.49;47.11;100550.47;5074726;28;1976;-58
2023/05/24 03:06:52;;;;;;;;;;;;;;;16.86;47.65;100548.31;5059188;28;1282;-58
2023/05/24 03:09:18;;;;;;;;;;;;;;;16.67;46.78;100550.84;5041408;28;1321;-58
2023/05/24 03:11:43;;;;;;;;;;;;;;;16.56;46.07;100553.63;5041564;28;1346;-58
2023/05/24 03:14:09;;;;;;;;;;;;;;;17.83;47.23;100546.91;5064461;28;1453;-58
2023/05/24 03:16:36;;;;;;;;;;;;;;;16.97;47.80;100540.88;5067382;28;1195;-58
2023/05/24 03:19:03;;;;;;;;;;;;;;;16.76;46.91;100550.00;5077999;28;936;-58
2023/05/24 03:21:28;;;;;;;;;;;;;;;17.60;47.46;100551.25;5079485;28;1058;-58
2023/05/24 03:23:55;;;;;;;;;;;;;;;16.90;47.88;100549.41;5061419;28;1976;-58
2023/05/24 03:26:20;;;;;;;;;;;;;;;16.75;46.92;100553.03;5079014;28;1118;-58
2023/05/24 03:28:46;;;;;;;;;;;;;;;17.52;47.62;100549.09;5078344;28;1062;-59
2023/05/24 03:31:12;;;;;;;;;;;;;;;17.05;48.13;100549.34;5053071;28;1365;-58
2023/05/24 03:33:38;;;;;;;;;;;;;;;17.69;47.98;100559.69;5078904;28;1049;-58
2023/05/24 03:36:04;;;;;;;;;;;;;;;18.19;48.24;100567.81;5060978;28;1336;-58
2023/05/24 03:38:32;;;;;;;;;;;;;;;17.33;48.94;100560.72;5066381;28;1467;-58
2023/05/24 03:40:58;;;;;;;;;;;;;;;17.06;47.84;100569.41;5066059;28;1146;-56
2023/05/24 03:43:23;;;;;;;;;;;;;;;16.94;46.87;100569.72;5078727;28;1983;-57
2023/05/24 03:45:55;;;;;;;;;;;;;;;16.77;46.38;100568.13;5060909;28;1125;-57
2023/05/24 03:48:21;;;;;;;;;;;;;;;16.70;45.85;100566.75;5077967;28;1049;-58
2023/05/24 03:50:47;;;;;;;;;;;;;;;16.60;45.64;100575.84;5060497;28;1422;-59
2023/05/24 03:53:13;;;;;;;;;;;;;;;16.53;45.14;100564.34;5063048;28;1292;-58
2023/05/24 03:55:38;;;;;;;;;;;;;;;17.23;47.11;100575.34;5067204;28;1211;-57
2023/05/24 03:58:04;;;;;;;;;;;;;;;16.80;47.56;100568.66;5067237;28;1300;-57
2023/05/24 04:00:29;;;;;;;;;;;;;;;16.62;46.77;100561.84;5067130;28;1142;-58
2023/05/24 04:02:55;;;;;;;;;;;;;;;16.48;46.35;100561.59;5059682;28;1894;-58
2023/05/24 04:05:25;;;;;;;;;;;;;;;16.42;45.57;100564.38;5070758;28;1119;-58
2023/05/24 04:07:52;;;;;;;;;;;;;;;18.02;47.64;100576.50;5050867;28;1329;-57
2023/05/24 04:10:17;;;;;;;;;;;;;;;17.15;48.50;100572.38;5086109;28;1336;-55
2023/05/24 04:12:43;;;;;;;;;;;;;;;16.81;48.15;100567.56;5048310;28;1328;-53
2023/05/24 04:15:13;;;;;;;;;;;;;;;16.65;47.37;100564.84;5067256;28;1055;-55
2023/05/24 04:17:41;;;;;;;;;;;;;;;16.64;46.60;100574.19;5062694;28;1245;-54
2023/05/24 04:20:08;;;;;;;;;;;;;;;17.08;47.59;100572.69;5088842;28;1130;-55
2023/05/24 04:22:35;;;;;;;;;;;;;;;16.99;47.95;100568.88;5059911;28;1901;-55
2023/05/24 04:25:03;;;;;;;;;;;;;;;16.55;47.46;100576.69;5057321;28;1237;-55
2023/05/24 04:27:30;;;;;;;;;;;;;;;16.52;46.62;100570.91;5061736;28;1317;-54
2023/05/24 04:29:55;;;;;;;;;;;;;;;16.43;46.28;100579.72;5076413;28;1097;-56
2023/05/24 04:32:22;;;;;;;;;;;;;;;17.45;47.14;100579.63;5058600;28;1513;-54
2023/05/24 04:34:47;;;;;;;;;;;;;;;16.73;48.00;100586.25;5054025;28;1257;-57
2023/05/24 04:37:15;;;;;;;;;;;;;;;16.60;47.03;100579.41;5066160;28;1183;-57
2023/05/24 04:39:43;;;;;;;;;;;;;;;17.52;47.23;100587.56;5044289;28;1213;-58
2023/05/24 04:42:09;;;;;;;;;;;;;;;16.86;47.73;100586.75;5070078;28;1143;-58
2023/05/24 04:44:34;;;;;;;;;;;;;;;16.59;47.45;100590.66;5091477;28;1982;-59
2023/05/24 04:47:02;;;;;;;;;;;;;;;16.48;46.51;100584.41;5047064;28;1151;-57
2023/05/24 04:49:28;;;;;;;;;;;;;;;17.60;47.45;100586.97;5089702;28;1134;-63
2023/05/24 04:51:53;;;;;;;;;;;;;;;16.79;48.21;100583.47;5077731;28;1246;-57
2023/05/24 04:54:19;;;;;;;;;;;;;;;16.63;47.46;100583.50;5051809;28;1337;-57
2023/05/24 04:56:45;;;;;;;;;;;;;;;17.63;47.59;100586.41;5084762;28;1087;-57
2023/05/24 04:59:10;;;;;;;;;;;;;;;17.49;47.95;100588.13;5092437;28;982;-57
2023/05/24 05:01:36;;;;;;;;;;;;;;;17.50;48.59;100596.13;5080339;28;1158;-57
2023/05/24 05:04:03;;;;;;;;;;;;;;;17.14;49.32;100595.44;5086054;28;1906;-57
2023/05/24 05:06:28;;;;;;;;;;;;;;;16.95;50.03;100593.34;5089126;28;1169;-59
2023/05/24 05:08:54;;;;;;;;;;;;;;;16.83;50.46;100587.31;5059940;28;1170;-56
2023/05/24 05:11:19;;;;;;;;;;;;;;;16.69;50.78;100585.16;5079192;28;1190;-56
2023/05/24 05:13:45;;;;;;;;;;;;;;;16.52;51.22;100588.22;5076878;28;1192;-57
2023/05/24 05:16:10;;;;;;;;;;;;;;;16.48;51.12;100580.81;5080176;28;1202;-56
2023/05/24 05:18:36;;;;;;;;;;;;;;;16.41;51.30;100587.41;5096426;28;1106;-56
2023/05/24 05:21:02;;;;;;;;;;;;;;;16.29;51.81;100583.31;5073701;28;1058;-56
2023/05/24 05:23:27;;;;;;;;;;;;;;;16.20;51.84;100594.84;5076603;28;1909;-55
2023/05/24 05:25:53;;;;;;;;;;;;;;;16.19;52.05;100592.38;5091575;28;1118;-57
2023/05/24 05:28:18;;;;;;;;;;;;;;;16.07;52.17;100593.50;5082007;28;1154;-54
2023/05/24 05:30:44;;;;;;;;;;;;;;;16.03;52.46;100588.81;5076330;28;1186;-53
2023/05/24 05:33:09;;;;;;;;;;;;;;;17.21;50.09;100587.75;5063637;28;1175;-56
2023/05/24 05:35:35;;;;;;;;;;;;;;;17.01;50.39;100594.97;5063105;28;1115;-58
2023/05/24 05:38:00;;;;;;;;;;;;;;;16.52;52.03;100598.38;5067661;28;1395;-56
2023/05/24 05:40:26;;;;;;;;;;;;;;;16.38;52.19;100593.47;5063819;28;1202;-53
2023/05/24 05:42:51;;;;;;;;;;;;;;;16.22;52.54;100605.56;5059946;28;1902;-56
2023/05/24 05:45:17;;;;;;;;;;;;;;;16.25;52.57;100607.72;5065205;28;1190;-56
2023/05/24 05:47:43;;;;;;;;;;;;;;;17.38;49.88;100601.94;5089700;28;1119;-53
2023/05/24 05:50:09;;;;;;;;;;;;;;;16.68;51.90;100608.22;5072045;28;1298;-53
2023/05/24 05:52:34;;;;;;;;;;;;;;;16.38;52.65;100620.06;5080450;28;971;-55
2023/05/24 05:55:00;;;;;;;;;;;;;;;16.31;52.60;100609.38;5068967;28;1134;-52
2023/05/24 05:57:25;;;;;;;;;;;;;;;16.18;52.86;100609.94;5080103;28;1023;-53
2023/05/24 05:59:51;;;;;;;;;;;;;;;16.69;51.95;100609.88;5082353;28;1154;-56
2023/05/24 06:02:17;;;;;;;;;;;;;;;17.08;50.92;100606.47;5074240;28;1106;-56
2023/05/24 06:04:44;;;;;;;;;;;;;;;16.57;52.29;100607.41;5082460;28;1901;-57
2023/05/24 06:07:09;;;;;;;;;;;;;;;16.38;52.58;100620.06;5077905;28;1505;-57
2023/05/24 06:09:34;;;;;;;;;;;;;;;16.21;53.08;100620.34;5083092;28;1114;-57
2023/05/24 06:12:00;;;;;;;;;;;;;;;16.91;51.56;100612.31;5078824;28;943;-56
2023/05/24 06:14:25;;;;;;;;;;;;;;;17.05;51.30;100611.72;5089158;28;1122;-56
2023/05/24 06:16:53;;;;;;;;;;;;;;;16.56;52.48;100608.53;5094007;28;1031;-56
2023/05/24 06:19:18;;;;;;;;;;;;;;;16.43;52.93;100614.59;5089989;28;1106;-56
2023/05/24 06:21:47;;;;;;;;;;;;;;;16.29;53.27;100610.75;5094116;28;1122;-56
2023/05/24 06:24:13;;;;;;;;;;;;;;;16.18;53.28;100612.69;5103041;28;1980;-57
2023/05/24 06:26:39;;;;;;;;;;;;;;;16.45;53.21;100608.81;5102141;28;1057;-56
2023/05/24 06:29:04;;;;;;;;;;;;;;;17.56;50.61;100611.47;5102829;28;1096;-56
2023/05/24 06:31:30;;;;;;;;;;;;;;;16.82;52.32;100607.66;5089830;28;1185;-56
2023/05/24 06:33:55;;;;;;;;;;;;;;;16.52;53.15;100603.84;5102843;28;1094;-56
2023/05/24 06:36:21;;;;;;;;;;;;;;;16.31;53.76;100614.03;5102951;28;1038;-54
2023/05/24 06:38:46;;;;;;;;;;;;;;;16.20;53.67;100604.97;5095645;28;908;-54
2023/05/24 06:41:12;;;;;;;;;;;;;;;16.20;53.75;100610.47;5101598;28;1121;-54
2023/05/24 06:43:37;;;;;;;;;;;;;;;16.11;53.76;100595.69;5066621;28;1901;-54
2023/05/24 06:46:03;;;;;;;;;;;;;;;17.50;51.05;100604.34;5102056;28;1299;-55
2023/05/24 06:48:28;;;;;;;;;;;;;;;16.87;52.48;100602.13;5087401;28;1114;-52
2023/05/24 06:50:53;;;;;;;;;;;;;;;16.50;53.51;100600.59;5086908;28;1205;-54
2023/05/24 06:53:19;;;;;;;;;;;;;;;16.32;53.72;100605.53;5084129;28;1245;-54
2023/05/24 06:55:46;;;;;;;;;;;;;;;16.25;53.98;100614.03;5100598;28;1066;-57
2023/05/24 06:58:13;;;;;;;;;;;;;;;16.18;53.83;100605.25;5084947;28;1106;-57
2023/05/24 07:00:41;;;;;;;;;;;;;;;17.10;52.33;100601.50;5082328;28;1227;-56
2023/05/24 07:03:07;;;;;;;;;;;;;;;17.13;52.10;100607.56;5098953;28;1991;-55
2023/05/24 07:05:33;;;;;;;;;;;;;;;16.61;53.58;100610.44;5086046;28;1099;-55
2023/05/24 07:07:59;;;;;;;;;;;;;;;16.50;53.94;100617.06;5081619;28;1055;-56
2023/05/24 07:10:24;;;;;;;;;;;;;;;16.28;54.39;100609.91;5085918;28;1170;-56
2023/05/24 07:12:50;;;;;;;;;;;;;;;16.23;54.31;100612.69;5089016;28;904;-54
2023/05/24 07:15:15;;;;;;;;;;;;;;;16.21;54.75;100615.69;5076814;28;1309;-57
2023/05/24 07:17:41;;;;;;;;;;;;;;;16.10;55.17;100615.97;5066544;28;1258;-56
2023/05/24 07:20:09;;;;;;;;;;;;;;;16.10;55.11;100614.03;5068509;28;1009;-59
2023/05/24 07:22:35;;;;;;;;;;;;;;;16.57;54.88;100610.16;5082490;28;1018;-59
2023/05/24 07:25:00;;;;;;;;;;;;;;;17.35;53.21;100616.25;5085106;28;1901;-57
2023/05/24 07:27:26;;;;;;;;;;;;;;;16.66;54.77;100615.09;5077450;28;1186;-57
2023/05/24 07:29:51;;;;;;;;;;;;;;;16.51;55.03;100624.16;5063754;28;1031;-58
2023/05/24 07:32:17;;;;;;;;;;;;;;;16.28;55.27;100618.16;5070124;28;1110;-58
2023/05/24 07:34:42;;;;;;;;;;;;;;;16.21;55.41;100617.63;5086546;28;1087;-58
2023/05/24 07:37:08;;;;;;;;;;;;;;;16.14;55.01;100622.56;5096410;28;1066;-55
2023/05/24 07:39:33;;;;;;;;;;;;;;;16.04;55.41;100615.97;5060492;28;1102;-57
2023/05/24 07:41:59;;;;;;;;;;;;;;;17.06;54.09;100627.09;5079811;28;1047;-55
2023/05/24 07:44:24;;;;;;;;;;;;;;;17.04;53.92;100615.53;5097710;28;1930;-57
2023/05/24 07:46:50;;;;;;;;;;;;;;;16.61;55.02;100615.94;5084929;28;1114;-56
2023/05/24 07:49:15;;;;;;;;;;;;;;;16.38;55.83;100620.06;5089483;28;1100;-58
2023/05/24 07:51:41;;;;;;;;;;;;;;;16.40;55.50;100626.13;5059639;28;1127;-53
2023/05/24 07:54:06;;;;;;;;;;;;;;;16.33;55.63;100628.31;5085693;28;1050;-60
2023/05/24 07:56:32;;;;;;;;;;;;;;;16.24;55.60;100630.78;5097867;28;1022;-60
2023/05/24 07:59:03;;;;;;;;;;;;;;;16.16;55.31;100631.31;5063562;28;1198;-64
2023/05/24 08:01:33;;;;;;;;;;;;;;;16.11;55.46;100626.66;5057717;28;1238;-62
2023/05/24 08:04:07;;;;;;;;;;;;;;;16.73;55.33;100619.19;5063713;28;1962;-62
2023/05/24 08:06:33;;;;;;;;;;;;;;;17.09;54.69;100627.34;5065091;28;1234;-62
2023/05/24 08:08:59;;;;;;;;;;;;;;;16.65;55.65;100627.16;5048070;28;1199;-63
2023/05/24 08:11:25;;;;;;;;;;;;;;;16.38;56.08;100629.13;5071030;28;1227;-62
2023/05/24 08:13:50;;;;;;;;;;;;;;;16.25;56.07;100627.75;5070587;28;1282;-64
2023/05/24 08:16:17;;;;;;;;;;;;;;;16.21;55.82;100631.34;5058127;28;1340;-58
2023/05/24 08:18:42;;;;;;;;;;;;;;;16.90;55.19;100631.78;5083507;28;1123;-60
2023/05/24 08:21:08;;;;;;;;;;;;;;;17.36;54.16;100630.81;5088392;28;944;-62
2023/05/24 08:23:33;;;;;;;;;;;;;;;16.75;55.61;100630.72;5097513;28;1905;-64
2023/05/24 08:25:59;;;;;;;;;;;;;;;16.52;56.01;100625.81;5079258;28;1086;-63
2023/05/24 08:28:25;;;;;;;;;;;;;;;16.35;56.19;100628.84;5091374;28;1154;-64
2023/05/24 08:30:50;;;;;;;;;;;;;;;16.29;55.89;100627.22;5083751;28;1114;-63
2023/05/24 08:33:16;;;;;;;;;;;;;;;16.18;56.08;100620.91;5096988;28;1042;-64
2023/05/24 08:35:41;;;;;;;;;;;;;;;16.10;56.10;100626.94;5084670;28;1022;-64
2023/05/24 08:38:07;;;;;;;;;;;;;;;16.05;55.93;100628.59;5083572;28;1034;-63
2023/05/24 08:40:32;;;;;;;;;;;;;;;15.98;55.71;100627.22;5091122;28;1094;-61
2023/05/24 08:42:58;;;;;;;;;;;;;;;16.60;55.60;100625.25;5090129;28;1970;-64
2023/05/24 08:45:24;;;;;;;;;;;;;;;17.48;54.13;100630.47;5089939;28;1077;-63
2023/05/24 08:47:50;;;;;;;;;;;;;;;16.76;55.84;100628.81;5050727;28;1294;-64
2023/05/24 08:50:16;;;;;;;;;;;;;;;16.56;55.88;100621.41;5097010;28;1254;-62
2023/05/24 08:52:41;;;;;;;;;;;;;;;16.34;56.01;100633.53;5083730;28;1201;-62
2023/05/24 08:55:07;;;;;;;;;;;;;;;16.26;56.04;100625.84;5087692;28;1028;-62
2023/05/24 08:57:39;;;;;;;;;;;;;;;16.13;55.96;100645.59;5059688;28;1114;-63
2023/05/24 09:00:08;;;;;;;;;;;;;;;16.14;56.01;100637.09;5053705;28;1170;-62
2023/05/24 09:02:34;;;;;;;;;;;;;;;17.01;55.47;100638.94;5083984;28;1093;-60
2023/05/24 09:04:59;;;;;;;;;;;;;;;17.21;54.71;100643.53;5095867;28;1909;-64
2023/05/24 09:07:25;;;;;;;;;;;;;;;16.68;56.09;100641.16;5084026;28;1045;-64
2023/05/24 09:09:57;;;;;;;;;;;;;;;16.47;56.00;100650.53;5052217;28;1150;-65
2023/05/24 09:12:22;;;;;;;;;;;;;;;16.34;56.04;100647.25;5062568;28;1079;-63
2023/05/24 09:14:48;;;;;;;;;;;;;;;16.23;56.26;100651.09;5045153;28;1302;-64
2023/05/24 09:17:14;;;;;;;;;;;;;;;16.19;56.08;100645.31;5068667;28;1055;-62
2023/05/24 09:19:46;;;;;;;;;;;;;;;16.12;56.11;100646.69;5063134;28;1186;-62
2023/05/24 09:22:12;;;;;;;;;;;;;;;16.05;56.17;100650.53;5088945;28;1071;-62
2023/05/24 09:24:41;;;;;;;;;;;;;;;15.99;55.93;100650.78;5088428;28;1988;-62
2023/05/24 09:27:07;;;;;;;;;;;;;;;16.95;55.87;100651.00;5079527;28;1181;-64
2023/05/24 09:29:36;;;;;;;;;;;;;;;17.25;55.00;100643.75;5057336;28;1253;-62
2023/05/24 09:32:03;;;;;;;;;;;;;;;16.65;56.32;100646.38;5070717;28;1301;-62
2023/05/24 09:34:36;;;;;;;;;;;;;;;16.45;56.48;100647.22;5089134;28;1115;-62
2023/05/24 09:37:02;;;;;;;;;;;;;;;16.35;56.16;100654.38;5083253;28;1126;-63
2023/05/24 09:39:28;;;;;;;;;;;;;;;16.21;56.38;100654.09;5092617;28;1098;-62
2023/05/24 09:41:56;;;;;;;;;;;;;;;16.14;56.33;100660.97;5060330;28;1257;-62
2023/05/24 09:44:26;;;;;;;;;;;;;;;16.08;56.18;100655.47;5059212;28;1913;-63
2023/05/24 09:46:52;;;;;;;;;;;;;;;16.03;56.02;100655.47;5038804;28;1111;-62
2023/05/24 09:49:20;;;;;;;;;;;;;;;16.90;55.96;100662.84;5065026;28;1206;-61
2023/05/24 09:51:45;;;;;;;;;;;;;;;17.15;55.46;100666.59;5091166;28;1050;-61
2023/05/24 09:54:11;;;;;;;;;;;;;;;16.57;56.37;100672.47;5089438;28;1153;-63
2023/05/24 09:56:37;;;;;;;;;;;;;;;16.43;56.42;100667.53;5082620;28;1130;-62
2023/05/24 09:59:07;;;;;;;;;;;;;;;16.31;56.34;100672.47;5074414;28;1136;-64
2023/05/24 10:01:32;;;;;;;;;;;;;;;16.16;56.43;100672.47;5079808;28;1201;-65
2023/05/24 10:03:59;;;;;;;;;;;;;;;16.09;56.17;100670.03;5080532;28;1906;-62
2023/05/24 10:06:25;;;;;;;;;;;;;;;16.06;56.27;100674.13;5064540;28;1092;-63
2023/05/24 10:08:50;;;;;;;;;;;;;;;16.34;56.65;100671.09;5072551;28;1269;-64
2023/05/24 10:11:16;;;;;;;;;;;;;;;17.35;55.23;100657.47;5073047;28;1348;-61
2023/05/24 10:13:42;;;;;;;;;;;;;;;16.63;56.56;100659.56;5058507;28;1004;-62
2023/05/24 10:16:07;;;;;;;;;;;;;;;16.43;56.70;100658.50;5069736;28;1122;-62
2023/05/24 10:18:33;;;;;;;;;;;;;;;16.27;56.47;100654.09;5084323;28;1102;-64
2023/05/24 10:20:59;;;;;;;;;;;;;;;16.22;56.47;100654.94;5083337;28;1035;-64
2023/05/24 10:23:26;;;;;;;;;;;;;;;16.12;56.48;100657.66;5038896;28;1965;-64
2023/05/24 10:25:54;;;;;;;;;;;;;;;16.38;56.85;100653.84;5078569;28;1063;-63
2023/05/24 10:28:20;;;;;;;;;;;;;;;17.59;54.81;100638.38;5055776;28;1250;-63
2023/05/24 10:30:52;;;;;;;;;;;;;;;16.83;56.46;100648.56;5040718;28;1301;-62
2023/05/24 10:33:17;;;;;;;;;;;;;;;16.58;56.53;100636.50;5045546;28;1230;-63
2023/05/24 10:35:43;;;;;;;;;;;;;;;16.43;56.72;100655.75;5056327;28;1222;-62
2023/05/24 10:38:08;;;;;;;;;;;;;;;16.32;56.42;100654.91;5037642;28;1219;-60
2023/05/24 10:40:34;;;;;;;;;;;;;;;16.20;56.53;100657.09;5055365;28;1197;-61
2023/05/24 10:43:02;;;;;;;;;;;;;;;16.08;56.41;100641.75;5041996;28;1905;-58
2023/05/24 10:45:30;;;;;;;;;;;;;;;16.75;56.65;100644.44;5044276;28;1112;-59
2023/05/24 10:47:55;;;;;;;;;;;;;;;17.21;55.68;100643.53;5066801;28;1111;-58
2023/05/24 10:50:21;;;;;;;;;;;;;;;16.67;56.56;100639.50;5060331;28;1328;-59
2023/05/24 10:52:49;;;;;;;;;;;;;;;16.48;56.59;100639.28;5064423;28;1131;-59
2023/05/24 10:55:14;;;;;;;;;;;;;;;16.30;56.70;100629.69;5062003;28;1312;-58
2023/05/24 10:57:40;;;;;;;;;;;;;;;16.27;56.30;100635.75;5065072;28;1321;-60
2023/05/24 11:00:15;;;;;;;;;;;;;;;16.16;56.37;100639.53;5070388;28;1167;-61
2023/05/24 11:02:41;;;;;;;;;;;;;;;16.14;56.24;100641.75;5079384;28;1029;-59
2023/05/24 11:05:06;;;;;;;;;;;;;;;16.11;56.50;100642.31;5092714;28;1918;-62
2023/05/24 11:07:33;;;;;;;;;;;;;;;17.41;55.82;100647.28;5068280;28;1182;-63
2023/05/24 11:10:01;;;;;;;;;;;;;;;16.89;56.50;100649.41;5070408;28;1245;-61
2023/05/24 11:12:29;;;;;;;;;;;;;;;16.56;56.85;100655.19;5065702;28;1225;-62
2023/05/24 11:14:55;;;;;;;;;;;;;;;16.45;56.61;100660.97;5071223;28;1406;-63
2023/05/24 11:17:21;;;;;;;;;;;;;;;16.31;56.66;100656.00;5098708;28;1101;-63
2023/05/24 11:19:47;;;;;;;;;;;;;;;16.23;56.35;100651.91;5087999;28;1078;-64
2023/05/24 11:22:13;;;;;;;;;;;;;;;16.12;56.55;100654.91;5080267;28;1239;-63
2023/05/24 11:24:42;;;;;;;;;;;;;;;16.06;56.57;100659.56;5091407;28;1913;-64
2023/05/24 11:27:09;;;;;;;;;;;;;;;17.40;55.89;100651.97;5072995;28;1103;-64
2023/05/24 11:29:41;;;;;;;;;;;;;;;17.04;56.40;100649.34;5074137;28;1207;-64
2023/05/24 11:32:07;;;;;;;;;;;;;;;16.65;56.89;100638.97;5075627;28;1209;-63
2023/05/24 11:34:33;;;;;;;;;;;;;;;16.44;57.05;100640.94;5063474;28;1337;-64
2023/05/24 11:36:59;;;;;;;;;;;;;;;16.36;56.83;100649.72;5062726;28;1088;-64
2023/05/24 11:39:28;;;;;;;;;;;;;;;16.27;56.59;100640.38;5066209;28;1241;-63
2023/05/24 11:41:54;;;;;;;;;;;;;;;16.19;56.32;100633.53;5093562;28;1396;-64
2023/05/24 11:44:20;;;;;;;;;;;;;;;16.11;56.35;100637.63;5066221;28;1983;-64
2023/05/24 11:46:45;;;;;;;;;;;;;;;16.09;56.40;100634.34;5077522;28;1219;-61
2023/05/24 11:49:11;;;;;;;;;;;;;;;16.73;56.67;100635.69;5094566;28;1037;-63
2023/05/24 11:51:36;;;;;;;;;;;;;;;17.34;55.51;100636.59;5092969;28;1059;-61
2023/05/24 11:54:02;;;;;;;;;;;;;;;16.68;56.94;100634.88;5086528;28;1165;-61
2023/05/24 11:56:28;;;;;;;;;;;;;;;16.39;57.17;100635.44;5093782;28;1059;-64
2023/05/24 11:59:06;;;;;;;;;;;;;;;16.33;57.02;100636.56;5098379;28;1055;-63
2023/05/24 12:01:32;;;;;;;;;;;;;;;16.23;56.53;100635.44;5073772;28;1146;-64
2023/05/24 12:03:57;;;;;;;;;;;;;;;16.12;56.45;100643.94;5071220;28;1909;-63
2023/05/24 12:06:23;;;;;;;;;;;;;;;16.12;56.11;100643.94;5059033;28;1189;-60
2023/05/24 12:08:48;;;;;;;;;;;;;;;16.84;56.85;100635.63;5066099;28;1198;-62
2023/05/24 12:11:14;;;;;;;;;;;;;;;17.29;55.75;100633.84;5040356;28;1128;-61
2023/05/24 12:13:40;;;;;;;;;;;;;;;16.74;57.09;100634.56;5039843;28;1223;-63
2023/05/24 12:16:06;;;;;;;;;;;;;;;16.51;56.99;100626.91;5058750;28;1131;-62
2023/05/24 12:18:32;;;;;;;;;;;;;;;16.33;57.03;100623.66;5068891;28;1356;-61
2023/05/24 12:20:57;;;;;;;;;;;;;;;16.21;56.89;100621.16;5070611;28;1067;-63
2023/05/24 12:23:24;;;;;;;;;;;;;;;16.17;56.63;100620.09;5061029;28;1910;-63
2023/05/24 12:25:49;;;;;;;;;;;;;;;16.11;56.32;100614.88;5063265;28;957;-62
2023/05/24 12:28:17;;;;;;;;;;;;;;;16.07;56.73;100615.44;5090621;28;1142;-62
2023/05/24 12:30:43;;;;;;;;;;;;;;;17.39;55.83;100611.84;5050502;28;1178;-62
2023/05/24 12:33:09;;;;;;;;;;;;;;;16.82;56.84;100613.13;5061574;28;934;-61
2023/05/24 12:35:35;;;;;;;;;;;;;;;16.52;56.99;100604.69;5071899;28;1119;-64
2023/05/24 12:38:00;;;;;;;;;;;;;;;16.34;57.06;100597.84;5070730;28;1038;-65
2023/05/24 12:40:26;;;;;;;;;;;;;;;16.28;56.68;100590.72;5076488;28;1097;-64
2023/05/24 12:42:58;;;;;;;;;;;;;;;16.17;56.69;100589.91;5085764;28;1917;-63